Data for 10/12/2013

Time Sea-Level Adjusted Pressure Absolute Pressure Temperature Relative Humidity Dew Point   
(mb) (inHg) (mb) (inHg) (C) (F) (%) (C) (F)
00:05 1018 30.06 847 25.01 0.4 32.8 56 -7.3 18.9
00:10 1018 30.06 847 25.01 0.4 32.7 57 -7.3 18.9
00:15 1018 30.06 847 25.01 0.2 32.4 57 -7.3 18.9
00:20 1018 30.06 847 25.01 0.1 32.2 57 -7.4 18.7
00:25 1018 30.06 847 25.01 0.1 32.2 56 -7.6 18.3
00:30 1018 30.06 848 25.04 0.3 32.6 56 -7.4 18.7
00:35 1018 30.06 848 25.04 0.3 32.5 56 -7.5 18.4
00:40 1018 30.06 848 25.04 0.2 32.4 56 -7.6 18.3
00:45 1018 30.06 848 25.04 0.3 32.6 55 -7.8 18
00:50 1018 30.06 848 25.04 0.5 32.9 54 -7.8 17.9
00:55 1018 30.06 848 25.04 0.7 33.2 53 -7.9 17.7
01:00 1018 30.06 848 25.04 0.5 32.9 55 -7.4 18.7
01:05 1018 30.06 848 25.04 0.3 32.6 55 -7.8 18
01:10 1018 30.06 848 25.04 0.1 32.2 55 -7.8 17.9
01:15 1019 30.09 848 25.04 0.5 32.9 52 -8.2 17.2
01:20 1019 30.09 848 25.04 0.9 33.6 52 -7.9 17.8
01:25 1019 30.09 848 25.04 0.6 33 54 -7.7 18.1
01:30 1019 30.09 848 25.04 0.3 32.6 54 -7.8 17.9
01:35 1019 30.09 848 25.04 0.1 32.2 55 -7.9 17.8
01:40 1019 30.09 848 25.04 0.3 32.6 54 -8 17.6
01:45 1019 30.09 848 25.04 0.3 32.5 54 -7.9 17.7
01:50 1019 30.09 848 25.04 0.3 32.6 55 -7.8 18
01:55 1019 30.09 848 25.04 0 32.1 56 -7.8 18
02:00 1019 30.09 848 25.04 -0.2 31.7 57 -7.6 18.4
02:05 1019 30.09 848 25.04 -0.4 31.3 58 -7.6 18.3
02:10 1019 30.09 848 25.04 -0.6 30.9 59 -7.6 18.3
02:15 1019 30.09 848 25.04 -0.6 30.9 58 -7.9 17.8
02:20 1019 30.09 848 25.04 -0.5 31 58 -7.7 18.1
02:25 1019 30.09 848 25.04 -0.5 31.1 57 -7.9 17.7
02:30 1019 30.09 848 25.04 -0.4 31.3 57 -7.8 17.9
02:35 1019 30.09 848 25.04 -0.3 31.4 57 -7.8 17.9
02:40 1019 30.09 848 25.04 -0.5 31.2 58 -7.6 18.2
02:45 1019 30.09 848 25.04 -0.6 30.9 58 -7.9 17.8
02:50 1019 30.09 848 25.04 -0.5 31.2 58 -7.8 18
02:55 1019 30.09 848 25.04 -0.5 31 59 -7.6 18.4
03:00 1019 30.09 848 25.04 -0.7 30.7 59 -7.8 18
03:05 1019 30.09 848 25.04 -0.8 30.5 60 -7.6 18.2
03:10 1019 30.09 848 25.04 -1 30.3 60 -7.8 17.9
03:15 1019 30.09 848 25.04 -0.7 30.8 58 -8 17.6
03:20 1019 30.09 848 25.04 -0.3 31.4 58 -7.7 18.1
03:25 1019 30.09 848 25.04 -0.3 31.5 57 -7.8 18
03:30 1018 30.06 848 25.04 -0.4 31.3 58 -7.6 18.3
03:35 1018 30.06 848 25.04 -0.6 31 59 -7.6 18.3
03:40 1018 30.06 848 25.04 -0.8 30.7 60 -7.5 18.5
03:45 1018 30.06 848 25.04 -0.7 30.8 60 -7.6 18.4
03:50 1018 30.06 847 25.01 -0.5 31.1 59 -7.6 18.4
03:55 1018 30.06 847 25.01 -0.4 31.2 59 -7.5 18.5
04:00 1018 30.06 847 25.01 -0.5 31 60 -7.4 18.8
04:05 1018 30.06 847 25.01 -0.6 30.9 60 -7.5 18.5
04:10 1018 30.06 847 25.01 -0.5 31.2 58 -7.7 18.2
04:15 1018 30.06 847 25.01 -0.2 31.7 57 -7.6 18.3
04:20 1018 30.06 847 25.01 -0.2 31.6 59 -7.4 18.7
04:25 1018 30.06 847 25.01 -0.3 31.5 58 -7.6 18.3
04:30 1018 30.06 847 25.01 -0.2 31.7 57 -7.7 18.1
04:35 1018 30.06 847 25.01 0.3 32.5 55 -7.8 18
04:40 1018 30.06 847 25.01 0.3 32.6 54 -7.8 17.9
04:45 1018 30.06 848 25.04 0.5 32.9 56 -7.3 18.8
04:50 1018 30.06 848 25.04 0.1 32.2 56 -7.6 18.3
04:55 1018 30.06 848 25.04 -0.2 31.6 58 -7.6 18.3
05:00 1018 30.06 848 25.04 -0.6 31 60 -7.5 18.5
05:05 1018 30.06 848 25.04 -0.9 30.3 62 -7.4 18.8
05:10 1018 30.06 847 25.01 -1.3 29.6 65 -7.1 19.1
05:15 1018 30.06 848 25.04 -1.5 29.3 62 -7.9 17.8
05:20 1018 30.06 848 25.04 -0.7 30.7 59 -7.9 17.8
05:25 1018 30.06 848 25.04 -0.4 31.4 57 -7.9 17.8
05:30 1018 30.06 847 25.01 -0.1 31.8 57 -7.7 18.2
05:35 1018 30.06 848 25.04 -0.2 31.6 58 -7.4 18.7
05:40 1018 30.06 848 25.04 -0.4 31.2 60 -7.2 19
05:45 1018 30.06 848 25.04 -0.5 31.1 62 -7 19.4
05:50 1018 30.06 848 25.04 -0.7 30.8 61 -7.3 18.9
05:55 1018 30.06 847 25.01 -0.7 30.7 60 -7.6 18.4
06:00 1018 30.06 847 25.01 -0.7 30.8 63 -6.8 19.7
06:05 1018 30.06 847 25.01 -1.5 29.4 67 -6.9 19.6
06:10 1018 30.06 847 25.01 -1.7 28.9 66 -7.2 19
06:15 1018 30.06 848 25.04 -1.5 29.3 65 -7.3 18.9
06:20 1018 30.06 848 25.04 -1.4 29.4 65 -7.1 19.2
06:25 1018 30.06 847 25.01 -1.6 29 67 -7 19.4
06:30 1018 30.06 847 25.01 -1.8 28.8 67 -7 19.4
06:35 1018 30.06 847 25.01 -1.9 28.6 69 -6.8 19.7
06:40 1018 30.06 847 25.01 -2.2 28 71 -6.8 19.8
06:45 1018 30.06 847 25.01 -2.3 27.9 71 -6.9 19.6
06:50 1018 30.06 847 25.01 -2.3 27.8 69 -7.2 19.1
06:55 1018 30.06 847 25.01 -2 28.4 68 -7.2 19
07:00 1018 30.06 848 25.04 -1.9 28.5 68 -7.1 19.2
07:05 1018 30.06 848 25.04 -1.9 28.6 68 -7.1 19.3
07:10 1018 30.06 848 25.04 -1.9 28.7 68 -7 19.3
07:15 1018 30.06 848 25.04 -1.7 29 66 -7.1 19.1
07:20 1018 30.06 848 25.04 -1.5 29.3 66 -7 19.5
07:25 1018 30.06 848 25.04 -1.3 29.7 65 -7 19.4
07:30 1019 30.09 848 25.04 -0.9 30.4 64 -6.8 19.7
07:35 1019 30.09 848 25.04 -0.9 30.4 62 -7.2 19.1
07:40 1019 30.09 848 25.04 -0.6 30.9 61 -7.2 19
07:45 1019 30.09 848 25.04 -0.7 30.7 65 -6.5 20.2
07:50 1019 30.09 848 25.04 -1.1 30 66 -6.6 20.1
07:55 1019 30.09 848 25.04 -1.3 29.7 68 -6.5 20.3
08:00 1019 30.09 848 25.04 -1.2 29.8 68 -6.4 20.4
08:05 1019 30.09 848 25.04 -1.2 29.9 67 -6.4 20.4
08:10 1019 30.09 848 25.04 -1 30.2 67 -6.3 20.7
08:15 1019 30.09 848 25.04 -0.8 30.6 66 -6.4 20.6
08:20 1019 30.09 848 25.04 -0.6 30.9 66 -6.1 21
08:25 1019 30.09 848 25.04 -0.5 31.1 67 -5.9 21.3
08:30 1019 30.09 848 25.04 -0.4 31.3 64 -6.4 20.5
08:35 1019 30.09 848 25.04 -0.1 31.8 61 -6.7 20
08:40 1019 30.09 848 25.04 0.3 32.6 60 -6.5 20.2
08:45 1019 30.09 848 25.04 0.6 33 59 -6.6 20.1
08:50 1019 30.09 848 25.04 0.9 33.7 59 -6.2 20.9
08:55 1019 30.09 848 25.04 1.4 34.4 58 -6.1 21
09:00 1019 30.09 848 25.04 1.7 35 56 -6.2 20.8
09:05 1019 30.09 848 25.04 1.6 35 57 -6.1 21.1
09:10 1019 30.09 848 25.04 1.8 35.3 58 -5.6 22
09:15 1019 30.09 848 25.04 1.9 35.5 55 -6.1 21
09:20 1019 30.09 848 25.04 2.2 36 51 -6.8 19.8
09:25 1019 30.09 848 25.04 2.7 36.9 52 -6.3 20.7
09:30 1019 30.09 848 25.04 3.1 37.6 48 -7 19.5
09:35 1019 30.09 848 25.04 3.8 38.8 46 -6.9 19.6
09:40 1019 30.09 848 25.04 4.1 39.4 46 -6.6 20.2
09:45 1019 30.09 848 25.04 4.2 39.6 45 -6.7 19.9
09:50 1019 30.09 848 25.04 4.4 39.8 44 -6.8 19.8
09:55 1019 30.09 848 25.04 4.6 40.2 44 -6.7 19.9
10:00 1019 30.09 848 25.04 4.8 40.7 44 -6.4 20.6
10:05 1019 30.09 848 25.04 4.9 40.8 44 -6.3 20.6
10:10 1019 30.09 848 25.04 5.1 41.1 43 -6.4 20.5
10:15 1019 30.09 848 25.04 5.4 41.8 43 -6.2 20.8
10:20 1019 30.09 848 25.04 5.8 42.4 43 -6 21.3
10:25 1019 30.09 848 25.04 5.8 42.4 43 -5.7 21.7
10:30 1019 30.09 848 25.04 6 42.9 43 -5.5 22.1
10:35 1019 30.09 848 25.04 6.4 43.4 44 -5.1 22.8
10:40 1018 30.06 848 25.04 6.4 43.6 44 -5.1 22.8
10:45 1018 30.06 848 25.04 6.3 43.3 43 -5.4 22.3
10:50 1018 30.06 848 25.04 6.6 43.8 43 -5.2 22.7
10:55 1018 30.06 848 25.04 6 42.8 44 -5.3 22.4
11:00 1018 30.06 847 25.01 6.6 44 42 -5.4 22.3
11:05 1018 30.06 847 25.01 7.3 45.2 42 -4.8 23.4
11:10 1018 30.06 847 25.01 7.1 44.7 43 -4.6 23.8
11:15 1018 30.06 847 25.01 6.6 43.8 43 -5 23
11:20 1018 30.06 847 25.01 6.8 44.2 44 -4.7 23.5
11:25 1018 30.06 847 25.01 6.8 44.3 43 -4.7 23.5
11:30 1018 30.06 847 25.01 7.1 44.7 43 -4.8 23.4
11:35 1018 30.06 847 25.01 6.8 44.3 45 -4.3 24.3
11:40 1018 30.06 847 25.01 6.8 44.3 44 -4.6 23.8
11:45 1018 30.06 847 25.01 7 44.6 46 -3.9 25
11:50 1018 30.06 847 25.01 6.6 43.8 44 -4.8 23.4
11:55 1018 30.06 847 25.01 7 44.6 43 -4.7 23.6
12:00 1018 30.06 847 25.01 7.1 44.7 43 -4.6 23.8
12:05 1018 30.06 847 25.01 6.7 44.1 45 -4.3 24.3
12:10 1018 30.06 847 25.01 6.7 44.1 45 -4.5 23.9
12:15 1018 30.06 847 25.01 6.7 44.1 45 -4.5 23.9
12:20 1018 30.06 847 25.01 6.7 44 45 -4.5 23.9
12:25 1018 30.06 847 25.01 6.5 43.7 45 -4.5 23.9
12:30 1018 30.06 847 25.01 6.4 43.5 45 -4.7 23.6
12:35 1018 30.06 847 25.01 6.3 43.4 45 -4.8 23.4
12:40 1018 30.06 847 25.01 6.2 43.1 46 -4.6 23.8
12:45 1018 30.06 847 25.01 6.3 43.3 46 -4.5 24
12:50 1018 30.06 847 25.01 6.1 43 47 -4.4 24.1
12:55 1018 30.06 847 25.01 6 42.9 47 -4.5 23.9
13:00 1018 30.06 847 25.01 6.2 43.1 46 -4.7 23.6
13:05 1018 30.06 847 25.01 6.3 43.3 44 -5 22.9
13:10 1018 30.06 847 25.01 6.3 43.3 44 -5.1 22.8
13:15 1018 30.06 847 25.01 6.4 43.4 44 -5 23
13:20 1018 30.06 847 25.01 6.4 43.6 44 -4.9 23.1
13:25 1018 30.06 847 25.01 6.5 43.6 43 -5.3 22.5
13:30 1018 30.06 847 25.01 6.5 43.7 43 -5.3 22.4
13:35 1018 30.06 847 25.01 6.4 43.5 44 -5 23.1
13:40 1018 30.06 847 25.01 6.3 43.4 45 -4.8 23.4
13:45 1018 30.06 847 25.01 6.4 43.5 44 -4.9 23.1
13:50 1018 30.06 847 25.01 6.3 43.4 44 -5 23
13:55 1018 30.06 847 25.01 6.5 43.7 43 -5.1 22.9
14:00 1018 30.06 847 25.01 6.7 44 44 -4.9 23.2
14:05 1018 30.06 847 25.01 6.5 43.8 44 -4.9 23.2
14:10 1018 30.06 847 25.01 6.8 44.2 43 -5 23.1
14:15 1018 30.06 847 25.01 6.7 44 45 -4.4 24
14:20 1018 30.06 847 25.01 6.5 43.7 45 -4.7 23.6
14:25 1018 30.06 847 25.01 6.4 43.5 44 -4.8 23.3
14:30 1018 30.06 847 25.01 6.3 43.3 45 -4.8 23.4
14:35 1018 30.06 847 25.01 6.4 43.6 45 -4.8 23.4
14:40 1018 30.06 847 25.01 6.7 44.1 44 -4.7 23.6
14:45 1018 30.06 847 25.01 6.7 44.1 44 -4.6 23.7
14:50 1018 30.06 847 25.01 6.7 44 46 -4.2 24.4
14:55 1018 30.06 848 25.04 6.7 44 46 -4.2 24.4
15:00 1018 30.06 848 25.04 6.7 44.1 46 -3.9 24.9
15:05 1019 30.09 848 25.04 6.9 44.3 46 -3.9 24.9
15:10 1019 30.09 848 25.04 6.7 44.1 47 -3.8 25.2
15:15 1019 30.09 848 25.04 6.9 44.4 47 -3.6 25.6
15:20 1018 30.06 848 25.04 6.7 44.1 49 -3.1 26.5
15:25 1018 30.06 848 25.04 6.6 43.9 52 -2.7 27.2
15:30 1019 30.09 848 25.04 6.8 44.2 52 -2.3 27.9
15:35 1019 30.09 848 25.04 6.8 44.2 53 -2.1 28.3
15:40 1019 30.09 848 25.04 6.9 44.4 54 -1.8 28.7
15:45 1019 30.09 848 25.04 7 44.5 54 -1.8 28.8
15:50 1019 30.09 848 25.04 7 44.5 54 -1.6 29.1
15:55 1019 30.09 848 25.04 7.2 44.9 53 -1.7 28.9
16:00 1019 30.09 848 25.04 7.1 44.7 54 -1.7 29
16:05 1019 30.09 848 25.04 7 44.6 54 -1.7 29
16:10 1019 30.09 848 25.04 6.9 44.5 55 -1.6 29.2
16:15 1019 30.09 848 25.04 7.1 44.8 54 -1.5 29.2
16:20 1019 30.09 848 25.04 7.4 45.3 52 -1.8 28.7
16:25 1019 30.09 848 25.04 7.6 45.6 51 -1.9 28.6
16:30 1019 30.09 848 25.04 7.8 46 50 -2 28.3
16:35 1019 30.09 848 25.04 8 46.4 49 -2 28.5
16:40 1019 30.09 848 25.04 7.7 45.8 52 -1.6 29.2
16:45 1018 30.06 848 25.04 7.6 45.8 52 -1.7 28.9
16:50 1018 30.06 848 25.04 7.5 45.5 52 -1.6 29.1
16:55 1018 30.06 848 25.04 7.4 45.3 51 -2 28.4
17:00 1018 30.06 848 25.04 7.4 45.3 51 -2.2 28.1
17:05 1018 30.06 848 25.04 7.3 45.1 51 -2 28.3
17:10 1018 30.06 848 25.04 7.3 45.1 53 -1.7 28.9
17:15 1018 30.06 848 25.04 7.1 44.8 57 -0.9 30.4
17:20 1018 30.06 848 25.04 6.9 44.4 59 -0.5 31
17:25 1019 30.09 848 25.04 6.7 44.1 60 -0.5 31.1
17:30 1019 30.09 848 25.04 6.5 43.6 61 -0.5 31.1
17:35 1019 30.09 848 25.04 6.2 43.1 63 -0.4 31.3
17:40 1019 30.09 848 25.04 6 42.8 63 -0.5 31.2
17:45 1019 30.09 848 25.04 5.8 42.4 63 -0.6 30.9
17:50 1019 30.09 848 25.04 5.6 42.1 64 -0.7 30.7
17:55 1019 30.09 848 25.04 5.5 41.8 63 -1 30.3
18:00 1019 30.09 848 25.04 5.3 41.6 62 -1.3 29.7
18:05 1019 30.09 848 25.04 5.2 41.3 62 -1.5 29.3
18:10 1019 30.09 848 25.04 5 40.9 61 -1.8 28.7
18:15 1019 30.09 848 25.04 4.9 40.8 62 -1.7 28.9
18:20 1019 30.09 848 25.04 4.7 40.5 63 -1.6 29.1
18:25 1019 30.09 848 25.04 4.7 40.4 65 -1.4 29.5
18:30 1019 30.09 848 25.04 4.6 40.2 67 -1.1 30
18:35 1019 30.09 848 25.04 4.4 39.9 68 -1 30.2
18:40 1019 30.09 848 25.04 4.3 39.7 69 -0.9 30.3
18:45 1019 30.09 848 25.04 4.3 39.7 70 -0.7 30.7
18:50 1019 30.09 848 25.04 4.2 39.6 71 -0.6 31
18:55 1019 30.09 848 25.04 4.3 39.7 71 -0.4 31.2
19:00 1019 30.09 848 25.04 4.3 39.8 72 -0.3 31.5
19:05 1019 30.09 848 25.04 4.3 39.8 72 -0.2 31.6
19:10 1019 30.09 848 25.04 4.3 39.7 72 -0.3 31.5
19:15 1019 30.09 848 25.04 4.3 39.7 72 -0.3 31.4
19:20 1019 30.09 848 25.04 4.2 39.5 71 -0.5 31.1
19:25 1019 30.09 848 25.04 4.3 39.8 71 -0.6 31
19:30 1019 30.09 848 25.04 4.3 39.8 70 -0.7 30.8
19:35 1019 30.09 848 25.04 4.3 39.7 70 -0.6 30.9
19:40 1019 30.09 849 25.07 4.2 39.5 71 -0.7 30.8
19:45 1019 30.09 849 25.07 4 39.2 71 -0.7 30.7
19:50 1019 30.09 848 25.04 4 39.1 71 -0.8 30.6
19:55 1019 30.09 848 25.04 4 39.1 70 -0.9 30.3
20:00 1019 30.09 848 25.04 4 39.3 70 -1 30.2
20:05 1019 30.09 848 25.04 4 39.2 70 -1.1 30.1
20:10 1019 30.09 848 25.04 3.9 39.1 70 -1 30.1
20:15 1019 30.09 848 25.04 3.8 38.9 70 -1.1 30
20:20 1019 30.09 848 25.04 3.8 38.8 70 -1.1 29.9
20:25 1019 30.09 849 25.07 3.8 38.8 70 -1.1 30
20:30 1019 30.09 849 25.07 3.8 38.8 71 -1 30.2
20:35 1019 30.09 849 25.07 3.7 38.7 71 -1 30.2
20:40 1019 30.09 849 25.07 3.7 38.7 72 -0.9 30.4
20:45 1020 30.12 849 25.07 3.7 38.6 73 -0.8 30.5
20:50 1020 30.12 849 25.07 3.6 38.5 73 -0.8 30.5
20:55 1020 30.12 849 25.07 3.5 38.3 73 -0.8 30.6
21:00 1020 30.12 849 25.07 3.5 38.3 73 -0.8 30.6
21:05 1020 30.12 849 25.07 3.6 38.4 74 -0.7 30.7
21:10 1020 30.12 849 25.07 3.6 38.5 73 -0.7 30.8
21:15 1020 30.12 849 25.07 3.7 38.6 74 -0.6 30.9
21:20 1020 30.12 849 25.07 3.6 38.5 74 -0.7 30.8
21:25 1020 30.12 849 25.07 3.6 38.5 74 -0.6 30.9
21:30 1020 30.12 849 25.07 3.6 38.4 74 -0.6 30.9
21:35 1020 30.12 849 25.07 3.5 38.3 75 -0.6 31
21:40 1020 30.12 849 25.07 3.5 38.3 75 -0.5 31
21:45 1020 30.12 849 25.07 3.5 38.3 75 -0.5 31.2
21:50 1020 30.12 849 25.07 3.4 38.2 76 -0.4 31.3
21:55 1020 30.12 849 25.07 3.3 37.9 78 -0.1 31.8
22:00 1020 30.12 849 25.07 3.1 37.6 79 -0.2 31.7
22:05 1020 30.12 849 25.07 3.2 37.7 79 -0.1 31.9
22:10 1020 30.12 849 25.07 3.2 37.7 79 -0.1 31.8
22:15 1020 30.12 849 25.07 3.1 37.7 79 -0.1 31.9
22:20 1020 30.12 849 25.07 3.2 37.8 79 -0.1 31.8
22:25 1020 30.12 849 25.07 3.3 37.9 78 -0.2 31.7
22:30 1020 30.12 849 25.07 3.4 38.1 78 -0.1 31.8
22:35 1020 30.12 849 25.07 3.4 38.1 78 -0.1 31.9
22:40 1020 30.12 849 25.07 3.3 38 79 -0 31.9
22:45 1020 30.12 849 25.07 3.3 37.9 79 -0.1 31.9
22:50 1020 30.12 849 25.07 3.3 38 79 -0 31.9
22:55 1020 30.12 849 25.07 3.3 38 79 -0 32
23:00 1020 30.12 849 25.07 3.3 37.9 79 -0 31.9
23:05 1020 30.12 850 25.1 3.3 38 79 -0.1 31.9
23:10 1020 30.12 850 25.1 3.3 38 78 -0.1 31.8
23:15 1020 30.12 850 25.1 3.3 38 78 -0.1 31.8
23:20 1020 30.12 850 25.1 3.3 37.9 79 -0.1 31.9
23:25 1020 30.12 850 25.1 3.2 37.7 79 -0.1 31.8
23:30 1020 30.12 850 25.1 3.2 37.7 79 -0.1 31.8
23:35 1020 30.12 850 25.1 3.1 37.5 80 -0.1 31.9
23:40 1020 30.12 850 25.1 3 37.4 80 -0.2 31.7
23:45 1020 30.12 850 25.1 3.1 37.6 79 -0.2 31.6
23:50 1020 30.12 850 25.1 3.3 37.9 78 -0.2 31.7
23:55 1020 30.12 849 25.07 3.4 38 77 -0.3 31.5
24:00 1020 30.12 849 25.07 3.4 38.2 77 -0.3 31.5